sensor_id;sensor_type;location;lat;lon;timestamp;temperature;humidity
52965;DHT22;42923;53.220;6.528;2023-03-01T00:01:47;-1.10;99.90
52965;DHT22;42923;53.220;6.528;2023-03-01T00:04:14;-1.10;99.90
52965;DHT22;42923;53.220;6.528;2023-03-01T00:06:40;-1.10;99.90
52965;DHT22;42923;53.220;6.528;2023-03-01T00:09:07;-1.20;99.90
52965;DHT22;42923;53.220;6.528;2023-03-01T00:11:33;-1.20;99.90
52965;DHT22;42923;53.220;6.528;2023-03-01T00:14:01;-1.20;99.90
52965;DHT22;42923;53.220;6.528;2023-03-01T00:16:30;-1.20;99.90
52965;DHT22;42923;53.220;6.528;2023-03-01T00:18:57;-1.30;99.90
52965;DHT22;42923;53.220;6.528;2023-03-01T00:21:24;-1.40;99.90
52965;DHT22;42923;53.220;6.528;2023-03-01T00:23:50;-1.40;99.90
52965;DHT22;42923;53.220;6.528;2023-03-01T00:26:17;-1.40;99.90
52965;DHT22;42923;53.220;6.528;2023-03-01T00:28:44;-1.50;99.90
52965;DHT22;42923;53.220;6.528;2023-03-01T00:31:15;-1.50;99.90
52965;DHT22;42923;53.220;6.528;2023-03-01T00:33:42;-1.50;99.90
52965;DHT22;42923;53.220;6.528;2023-03-01T00:36:08;-1.60;99.90
52965;DHT22;42923;53.220;6.528;2023-03-01T00:38:39;-1.60;99.90
52965;DHT22;42923;53.220;6.528;2023-03-01T00:41:06;-1.60;99.90
52965;DHT22;42923;53.220;6.528;2023-03-01T00:43:33;-1.70;99.90
52965;DHT22;42923;53.220;6.528;2023-03-01T00:46:08;-1.70;99.90
52965;DHT22;42923;53.220;6.528;2023-03-01T00:48:34;-1.70;99.90
52965;DHT22;42923;53.220;6.528;2023-03-01T00:51:07;-1.70;99.90
52965;DHT22;42923;53.220;6.528;2023-03-01T00:53:33;-1.60;99.90
52965;DHT22;42923;53.220;6.528;2023-03-01T00:56:03;-1.60;99.90
52965;DHT22;42923;53.220;6.528;2023-03-01T00:58:29;-1.60;99.90
52965;DHT22;42923;53.220;6.528;2023-03-01T01:00:55;-1.60;99.90
52965;DHT22;42923;53.220;6.528;2023-03-01T01:03:21;-1.70;99.90
52965;DHT22;42923;53.220;6.528;2023-03-01T01:05:47;-1.00;99.90
52965;DHT22;42923;53.220;6.528;2023-03-01T01:08:13;-1.70;99.90
52965;DHT22;42923;53.220;6.528;2023-03-01T01:10:39;-1.70;99.90
52965;DHT22;42923;53.220;6.528;2023-03-01T01:13:04;-1.80;99.90
52965;DHT22;42923;53.220;6.528;2023-03-01T01:15:33;-1.80;99.90
52965;DHT22;42923;53.220;6.528;2023-03-01T01:18:00;-1.90;99.90
52965;DHT22;42923;53.220;6.528;2023-03-01T01:20:27;-1.90;99.90
52965;DHT22;42923;53.220;6.528;2023-03-01T01:22:53;-1.90;99.90
52965;DHT22;42923;53.220;6.528;2023-03-01T01:25:18;-1.90;99.90
52965;DHT22;42923;53.220;6.528;2023-03-01T01:27:44;-1.90;99.90
52965;DHT22;42923;53.220;6.528;2023-03-01T01:30:10;-1.80;99.90
52965;DHT22;42923;53.220;6.528;2023-03-01T01:32:36;-1.80;99.90
52965;DHT22;42923;53.220;6.528;2023-03-01T01:35:02;-1.80;99.90
52965;DHT22;42923;53.220;6.528;2023-03-01T01:37:28;-1.80;99.90
52965;DHT22;42923;53.220;6.528;2023-03-01T01:40:00;-1.90;99.90
52965;DHT22;42923;53.220;6.528;2023-03-01T01:42:26;-1.90;99.90
52965;DHT22;42923;53.220;6.528;2023-03-01T01:47:54;-1.90;99.90
52965;DHT22;42923;53.220;6.528;2023-03-01T01:50:21;-1.90;99.90
52965;DHT22;42923;53.220;6.528;2023-03-01T01:52:48;-0.50;99.90
52965;DHT22;42923;53.220;6.528;2023-03-01T01:55:18;-1.80;99.90
52965;DHT22;42923;53.220;6.528;2023-03-01T01:57:49;-1.80;99.90
52965;DHT22;42923;53.220;6.528;2023-03-01T02:00:21;-1.80;99.90
52965;DHT22;42923;53.220;6.528;2023-03-01T02:02:49;-1.80;99.90
52965;DHT22;42923;53.220;6.528;2023-03-01T02:08:11;-1.90;99.90
52965;DHT22;42923;53.220;6.528;2023-03-01T02:10:38;-2.00;99.90
52965;DHT22;42923;53.220;6.528;2023-03-01T02:13:04;-2.00;99.90
52965;DHT22;42923;53.220;6.528;2023-03-01T02:15:35;-2.10;99.90
52965;DHT22;42923;53.220;6.528;2023-03-01T02:18:02;-2.10;99.90
52965;DHT22;42923;53.220;6.528;2023-03-01T02:20:54;-1.30;99.90
52965;DHT22;42923;53.220;6.528;2023-03-01T02:23:22;-2.00;99.90
52965;DHT22;42923;53.220;6.528;2023-03-01T02:28:25;-1.90;99.90
52965;DHT22;42923;53.220;6.528;2023-03-01T02:30:51;-1.90;99.90
52965;DHT22;42923;53.220;6.528;2023-03-01T02:33:43;-1.20;99.90
52965;DHT22;42923;53.220;6.528;2023-03-01T02:36:13;-2.00;99.90
52965;DHT22;42923;53.220;6.528;2023-03-01T02:38:43;-2.00;99.90
52965;DHT22;42923;53.220;6.528;2023-03-01T02:41:12;-2.10;99.90
52965;DHT22;42923;53.220;6.528;2023-03-01T02:43:40;-1.50;99.90
52965;DHT22;42923;53.220;6.528;2023-03-01T02:46:12;-2.20;99.90
52965;DHT22;42923;53.220;6.528;2023-03-01T02:48:42;-2.20;99.90
52965;DHT22;42923;53.220;6.528;2023-03-01T02:51:27;-2.30;99.90
52965;DHT22;42923;53.220;6.528;2023-03-01T02:56:43;-2.30;99.90
52965;DHT22;42923;53.220;6.528;2023-03-01T02:59:10;-2.30;99.90
52965;DHT22;42923;53.220;6.528;2023-03-01T03:01:37;-2.40;99.90
52965;DHT22;42923;53.220;6.528;2023-03-01T03:04:11;-2.40;99.90
52965;DHT22;42923;53.220;6.528;2023-03-01T03:06:45;-2.50;99.90
52965;DHT22;42923;53.220;6.528;2023-03-01T03:09:12;-2.50;99.90
52965;DHT22;42923;53.220;6.528;2023-03-01T03:11:38;-2.60;99.90
52965;DHT22;42923;53.220;6.528;2023-03-01T03:14:05;-2.60;99.90
52965;DHT22;42923;53.220;6.528;2023-03-01T03:16:31;-3.40;99.90
52965;DHT22;42923;53.220;6.528;2023-03-01T03:18:59;-2.60;99.90
52965;DHT22;42923;53.220;6.528;2023-03-01T03:21:32;-2.60;99.90
52965;DHT22;42923;53.220;6.528;2023-03-01T03:23:58;-2.50;99.90
52965;DHT22;42923;53.220;6.528;2023-03-01T03:26:24;-2.50;99.90
52965;DHT22;42923;53.220;6.528;2023-03-01T03:28:50;-2.60;99.90
52965;DHT22;42923;53.220;6.528;2023-03-01T03:31:15;-2.60;99.90
52965;DHT22;42923;53.220;6.528;2023-03-01T03:33:41;-2.60;99.90
52965;DHT22;42923;53.220;6.528;2023-03-01T03:36:07;-2.60;99.90
52965;DHT22;42923;53.220;6.528;2023-03-01T03:38:39;-2.60;99.90
52965;DHT22;42923;53.220;6.528;2023-03-01T03:41:07;-2.60;99.90
52965;DHT22;42923;53.220;6.528;2023-03-01T03:43:36;-2.60;99.90
52965;DHT22;42923;53.220;6.528;2023-03-01T03:46:02;-2.60;99.90
52965;DHT22;42923;53.220;6.528;2023-03-01T03:48:33;-2.70;99.90
52965;DHT22;42923;53.220;6.528;2023-03-01T03:50:59;-2.70;99.90
52965;DHT22;42923;53.220;6.528;2023-03-01T03:53:27;-2.70;99.90
52965;DHT22;42923;53.220;6.528;2023-03-01T03:55:53;-2.70;99.90
52965;DHT22;42923;53.220;6.528;2023-03-01T03:58:21;-2.50;99.90
52965;DHT22;42923;53.220;6.528;2023-03-01T04:00:49;-2.70;99.90
52965;DHT22;42923;53.220;6.528;2023-03-01T04:03:16;-2.80;99.90
52965;DHT22;42923;53.220;6.528;2023-03-01T04:05:42;-1.90;99.90
52965;DHT22;42923;53.220;6.528;2023-03-01T04:08:08;-2.80;99.90
52965;DHT22;42923;53.220;6.528;2023-03-01T04:10:40;-2.70;99.90
52965;DHT22;42923;53.220;6.528;2023-03-01T04:13:07;-2.60;99.90
52965;DHT22;42923;53.220;6.528;2023-03-01T04:15:34;-2.50;99.90
52965;DHT22;42923;53.220;6.528;2023-03-01T04:18:00;-2.50;99.90
52965;DHT22;42923;53.220;6.528;2023-03-01T04:20:30;-2.50;99.90
52965;DHT22;42923;53.220;6.528;2023-03-01T04:23:05;-2.50;99.90
52965;DHT22;42923;53.220;6.528;2023-03-01T04:25:40;-2.50;99.90
52965;DHT22;42923;53.220;6.528;2023-03-01T04:28:07;-2.60;99.90
52965;DHT22;42923;53.220;6.528;2023-03-01T04:30:35;-2.70;99.90
52965;DHT22;42923;53.220;6.528;2023-03-01T04:33:03;-2.80;99.90
52965;DHT22;42923;53.220;6.528;2023-03-01T04:35:30;-2.90;99.90
52965;DHT22;42923;53.220;6.528;2023-03-01T04:37:56;-2.90;99.90
52965;DHT22;42923;53.220;6.528;2023-03-01T04:40:21;-3.00;99.90
52965;DHT22;42923;53.220;6.528;2023-03-01T04:42:47;-3.10;99.90
52965;DHT22;42923;53.220;6.528;2023-03-01T04:45:13;-3.10;99.90
52965;DHT22;42923;53.220;6.528;2023-03-01T04:47:43;-3.20;99.90
52965;DHT22;42923;53.220;6.528;2023-03-01T04:50:11;-3.20;99.90
52965;DHT22;42923;53.220;6.528;2023-03-01T04:52:37;-3.20;99.90
52965;DHT22;42923;53.220;6.528;2023-03-01T04:55:04;-3.30;99.90
52965;DHT22;42923;53.220;6.528;2023-03-01T04:57:30;-3.30;99.90
52965;DHT22;42923;53.220;6.528;2023-03-01T04:59:56;-3.30;99.90
52965;DHT22;42923;53.220;6.528;2023-03-01T05:02:21;-3.40;99.90
52965;DHT22;42923;53.220;6.528;2023-03-01T05:04:47;-3.40;99.90
52965;DHT22;42923;53.220;6.528;2023-03-01T05:07:13;-3.40;99.90
52965;DHT22;42923;53.220;6.528;2023-03-01T05:09:48;-2.60;99.90
52965;DHT22;42923;53.220;6.528;2023-03-01T05:12:14;-3.50;99.90
52965;DHT22;42923;53.220;6.528;2023-03-01T05:14:41;-3.50;99.90
52965;DHT22;42923;53.220;6.528;2023-03-01T05:17:07;-3.50;99.90
52965;DHT22;42923;53.220;6.528;2023-03-01T05:19:33;-3.60;99.90
52965;DHT22;42923;53.220;6.528;2023-03-01T05:21:59;-3.50;99.90
52965;DHT22;42923;53.220;6.528;2023-03-01T05:24:34;-3.60;99.90
52965;DHT22;42923;53.220;6.528;2023-03-01T05:27:01;-3.60;99.90
52965;DHT22;42923;53.220;6.528;2023-03-01T05:29:28;-3.60;99.90
52965;DHT22;42923;53.220;6.528;2023-03-01T05:31:57;-3.60;99.90
52965;DHT22;42923;53.220;6.528;2023-03-01T05:36:51;-3.60;99.90
52965;DHT22;42923;53.220;6.528;2023-03-01T05:39:22;-3.60;99.90
52965;DHT22;42923;53.220;6.528;2023-03-01T05:41:52;-3.60;99.90
52965;DHT22;42923;53.220;6.528;2023-03-01T05:44:18;-3.60;99.90
52965;DHT22;42923;53.220;6.528;2023-03-01T05:46:44;-3.60;99.90
52965;DHT22;42923;53.220;6.528;2023-03-01T05:49:11;-3.70;99.90
52965;DHT22;42923;53.220;6.528;2023-03-01T05:51:39;-3.70;99.90
52965;DHT22;42923;53.220;6.528;2023-03-01T05:54:05;-3.70;99.90
52965;DHT22;42923;53.220;6.528;2023-03-01T05:56:34;-3.70;99.90
52965;DHT22;42923;53.220;6.528;2023-03-01T05:59:02;-3.70;99.90
52965;DHT22;42923;53.220;6.528;2023-03-01T06:01:28;-3.70;99.90
52965;DHT22;42923;53.220;6.528;2023-03-01T06:03:55;-3.70;99.90
52965;DHT22;42923;53.220;6.528;2023-03-01T06:06:22;-3.70;99.90
52965;DHT22;42923;53.220;6.528;2023-03-01T06:08:48;-3.70;99.90
52965;DHT22;42923;53.220;6.528;2023-03-01T06:11:13;-3.70;99.90
52965;DHT22;42923;53.220;6.528;2023-03-01T06:13:44;-3.70;99.90
52965;DHT22;42923;53.220;6.528;2023-03-01T06:16:11;-3.70;99.90
52965;DHT22;42923;53.220;6.528;2023-03-01T06:18:37;-3.80;99.90
52965;DHT22;42923;53.220;6.528;2023-03-01T06:21:04;-3.80;99.90
52965;DHT22;42923;53.220;6.528;2023-03-01T06:23:30;-3.90;99.90
52965;DHT22;42923;53.220;6.528;2023-03-01T06:25:56;-3.90;99.90
52965;DHT22;42923;53.220;6.528;2023-03-01T06:28:22;-3.90;99.90
52965;DHT22;42923;53.220;6.528;2023-03-01T06:30:49;-3.90;99.90
52965;DHT22;42923;53.220;6.528;2023-03-01T06:33:15;-3.80;99.90
52965;DHT22;42923;53.220;6.528;2023-03-01T06:35:41;-3.90;99.90
52965;DHT22;42923;53.220;6.528;2023-03-01T06:38:07;-3.90;99.90
52965;DHT22;42923;53.220;6.528;2023-03-01T06:40:33;-3.90;99.90
52965;DHT22;42923;53.220;6.528;2023-03-01T06:43:00;-3.90;99.90
52965;DHT22;42923;53.220;6.528;2023-03-01T06:45:26;-3.90;99.90
52965;DHT22;42923;53.220;6.528;2023-03-01T06:47:52;-3.80;99.90
52965;DHT22;42923;53.220;6.528;2023-03-01T06:50:18;-3.80;99.90
52965;DHT22;42923;53.220;6.528;2023-03-01T06:52:44;-3.70;99.90
52965;DHT22;42923;53.220;6.528;2023-03-01T06:55:12;-3.70;99.90
52965;DHT22;42923;53.220;6.528;2023-03-01T06:57:38;-3.60;99.90
52965;DHT22;42923;53.220;6.528;2023-03-01T07:00:05;-3.60;99.90
52965;DHT22;42923;53.220;6.528;2023-03-01T07:02:31;-3.50;99.90
52965;DHT22;42923;53.220;6.528;2023-03-01T07:04:57;-3.40;99.90
52965;DHT22;42923;53.220;6.528;2023-03-01T07:07:22;-3.40;99.90
52965;DHT22;42923;53.220;6.528;2023-03-01T07:09:49;-3.40;99.90
52965;DHT22;42923;53.220;6.528;2023-03-01T07:12:15;-3.30;99.90
52965;DHT22;42923;53.220;6.528;2023-03-01T07:14:41;-3.30;99.90
52965;DHT22;42923;53.220;6.528;2023-03-01T07:17:09;-3.20;99.90
52965;DHT22;42923;53.220;6.528;2023-03-01T07:19:34;-3.00;99.90
52965;DHT22;42923;53.220;6.528;2023-03-01T07:22:00;-2.90;99.90
52965;DHT22;42923;53.220;6.528;2023-03-01T07:24:26;-2.90;99.90
52965;DHT22;42923;53.220;6.528;2023-03-01T07:26:52;-2.80;99.90
52965;DHT22;42923;53.220;6.528;2023-03-01T07:29:19;-2.60;99.90
52965;DHT22;42923;53.220;6.528;2023-03-01T07:31:45;-2.50;99.90
52965;DHT22;42923;53.220;6.528;2023-03-01T07:34:11;-2.40;99.90
52965;DHT22;42923;53.220;6.528;2023-03-01T07:36:37;-2.30;99.90
52965;DHT22;42923;53.220;6.528;2023-03-01T07:39:03;-2.20;99.90
52965;DHT22;42923;53.220;6.528;2023-03-01T07:41:29;-2.10;99.90
52965;DHT22;42923;53.220;6.528;2023-03-01T07:43:55;-1.90;99.90
52965;DHT22;42923;53.220;6.528;2023-03-01T07:46:21;-1.90;99.90
52965;DHT22;42923;53.220;6.528;2023-03-01T07:48:46;-1.70;99.90
52965;DHT22;42923;53.220;6.528;2023-03-01T07:51:13;-1.60;99.90
52965;DHT22;42923;53.220;6.528;2023-03-01T07:53:38;-1.50;99.90
52965;DHT22;42923;53.220;6.528;2023-03-01T07:58:31;-1.20;99.90
52965;DHT22;42923;53.220;6.528;2023-03-01T08:01:02;-1.10;99.90
52965;DHT22;42923;53.220;6.528;2023-03-01T08:03:28;-1.00;99.90
52965;DHT22;42923;53.220;6.528;2023-03-01T08:05:59;-0.80;99.90
52965;DHT22;42923;53.220;6.528;2023-03-01T08:08:24;-0.70;99.90
52965;DHT22;42923;53.220;6.528;2023-03-01T08:10:51;-0.50;99.90
52965;DHT22;42923;53.220;6.528;2023-03-01T08:13:17;-0.30;99.90
52965;DHT22;42923;53.220;6.528;2023-03-01T08:15:48;-0.10;99.90
52965;DHT22;42923;53.220;6.528;2023-03-01T08:18:15;0.30;99.90
52965;DHT22;42923;53.220;6.528;2023-03-01T08:20:40;0.80;99.90
52965;DHT22;42923;53.220;6.528;2023-03-01T08:23:06;1.20;99.90
52965;DHT22;42923;53.220;6.528;2023-03-01T08:25:32;1.40;99.90
52965;DHT22;42923;53.220;6.528;2023-03-01T08:27:58;1.50;99.90
52965;DHT22;42923;53.220;6.528;2023-03-01T08:30:23;1.60;99.90
52965;DHT22;42923;53.220;6.528;2023-03-01T08:32:49;1.70;99.90
52965;DHT22;42923;53.220;6.528;2023-03-01T08:35:16;1.90;99.90
52965;DHT22;42923;53.220;6.528;2023-03-01T08:37:42;2.10;99.90
52965;DHT22;42923;53.220;6.528;2023-03-01T08:40:08;3.10;99.90
52965;DHT22;42923;53.220;6.528;2023-03-01T08:42:36;3.20;99.90
52965;DHT22;42923;53.220;6.528;2023-03-01T08:45:06;4.00;99.90
52965;DHT22;42923;53.220;6.528;2023-03-01T08:47:32;4.10;99.90
52965;DHT22;42923;53.220;6.528;2023-03-01T08:50:01;4.40;99.90
52965;DHT22;42923;53.220;6.528;2023-03-01T08:52:27;5.30;99.90
52965;DHT22;42923;53.220;6.528;2023-03-01T08:54:53;5.10;99.90
52965;DHT22;42923;53.220;6.528;2023-03-01T08:57:19;5.40;99.90
52965;DHT22;42923;53.220;6.528;2023-03-01T08:59:44;5.40;99.90
52965;DHT22;42923;53.220;6.528;2023-03-01T09:02:15;5.40;99.90
52965;DHT22;42923;53.220;6.528;2023-03-01T09:04:41;5.40;99.90
52965;DHT22;42923;53.220;6.528;2023-03-01T09:07:07;5.30;99.90
52965;DHT22;42923;53.220;6.528;2023-03-01T09:09:33;5.30;99.90
52965;DHT22;42923;53.220;6.528;2023-03-01T09:12:00;5.30;99.90
52965;DHT22;42923;53.220;6.528;2023-03-01T09:14:25;5.30;99.90
52965;DHT22;42923;53.220;6.528;2023-03-01T09:16:51;5.30;99.90
52965;DHT22;42923;53.220;6.528;2023-03-01T09:19:17;5.40;99.90
52965;DHT22;42923;53.220;6.528;2023-03-01T09:21:43;5.60;99.90
52965;DHT22;42923;53.220;6.528;2023-03-01T09:24:20;5.60;99.90
52965;DHT22;42923;53.220;6.528;2023-03-01T09:26:46;5.90;99.90
52965;DHT22;42923;53.220;6.528;2023-03-01T09:29:13;6.20;99.90
52965;DHT22;42923;53.220;6.528;2023-03-01T09:31:39;6.30;99.90
52965;DHT22;42923;53.220;6.528;2023-03-01T09:34:06;6.50;99.90
52965;DHT22;42923;53.220;6.528;2023-03-01T09:36:32;6.80;99.90
52965;DHT22;42923;53.220;6.528;2023-03-01T09:38:58;6.90;99.90
52965;DHT22;42923;53.220;6.528;2023-03-01T09:41:45;6.80;99.90
52965;DHT22;42923;53.220;6.528;2023-03-01T09:44:37;6.80;99.90
52965;DHT22;42923;53.220;6.528;2023-03-01T09:47:05;6.80;99.90
52965;DHT22;42923;53.220;6.528;2023-03-01T09:49:38;6.80;99.90
52965;DHT22;42923;53.220;6.528;2023-03-01T09:54:34;7.10;99.90
52965;DHT22;42923;53.220;6.528;2023-03-01T09:57:26;7.40;99.90
52965;DHT22;42923;53.220;6.528;2023-03-01T10:02:46;8.20;99.90
52965;DHT22;42923;53.220;6.528;2023-03-01T10:10:40;9.10;99.90
52965;DHT22;42923;53.220;6.528;2023-03-01T10:16:05;9.60;99.90
52965;DHT22;42923;53.220;6.528;2023-03-01T10:18:35;10.00;99.90
52965;DHT22;42923;53.220;6.528;2023-03-01T10:21:09;10.30;99.90
52965;DHT22;42923;53.220;6.528;2023-03-01T10:23:37;10.70;99.90
52965;DHT22;42923;53.220;6.528;2023-03-01T10:26:33;11.20;99.90
52965;DHT22;42923;53.220;6.528;2023-03-01T10:29:08;11.80;99.90
52965;DHT22;42923;53.220;6.528;2023-03-01T10:31:46;12.50;99.90
52965;DHT22;42923;53.220;6.528;2023-03-01T10:34:18;12.70;99.90
52965;DHT22;42923;53.220;6.528;2023-03-01T10:36:50;13.00;99.90
52965;DHT22;42923;53.220;6.528;2023-03-01T10:39:22;13.40;99.90
52965;DHT22;42923;53.220;6.528;2023-03-01T10:44:40;13.40;99.90
52965;DHT22;42923;53.220;6.528;2023-03-01T10:47:17;13.40;99.90
52965;DHT22;42923;53.220;6.528;2023-03-01T10:52:23;13.30;99.90
52965;DHT22;42923;53.220;6.528;2023-03-01T10:54:55;13.40;99.90
52965;DHT22;42923;53.220;6.528;2023-03-01T10:57:36;13.70;99.90
52965;DHT22;42923;53.220;6.528;2023-03-01T11:03:04;13.70;99.90
52965;DHT22;42923;53.220;6.528;2023-03-01T11:05:35;13.70;99.90
52965;DHT22;42923;53.220;6.528;2023-03-01T11:08:02;13.80;99.60
52965;DHT22;42923;53.220;6.528;2023-03-01T11:10:31;13.90;99.70
52965;DHT22;42923;53.220;6.528;2023-03-01T11:13:18;14.20;99.70
52965;DHT22;42923;53.220;6.528;2023-03-01T11:16:01;14.60;99.00
52965;DHT22;42923;53.220;6.528;2023-03-01T11:18:29;15.00;98.20
52965;DHT22;42923;53.220;6.528;2023-03-01T11:20:55;15.40;96.20
52965;DHT22;42923;53.220;6.528;2023-03-01T11:23:22;15.40;95.20
52965;DHT22;42923;53.220;6.528;2023-03-01T11:25:54;15.50;93.30
52965;DHT22;42923;53.220;6.528;2023-03-01T11:28:21;15.60;91.30
52965;DHT22;42923;53.220;6.528;2023-03-01T11:31:07;15.60;91.10
52965;DHT22;42923;53.220;6.528;2023-03-01T11:33:48;15.50;88.00
52965;DHT22;42923;53.220;6.528;2023-03-01T11:38:54;15.00;87.40
52965;DHT22;42923;53.220;6.528;2023-03-01T11:41:26;14.90;86.60
52965;DHT22;42923;53.220;6.528;2023-03-01T11:44:16;15.00;85.90
52965;DHT22;42923;53.220;6.528;2023-03-01T12:05:59;14.50;79.50
52965;DHT22;42923;53.220;6.528;2023-03-01T12:08:37;14.90;80.40
52965;DHT22;42923;53.220;6.528;2023-03-01T12:11:20;15.30;77.00
52965;DHT22;42923;53.220;6.528;2023-03-01T12:22:34;15.80;74.10
52965;DHT22;42923;53.220;6.528;2023-03-01T12:25:16;15.50;74.70
52965;DHT22;42923;53.220;6.528;2023-03-01T12:33:34;15.20;75.80
52965;DHT22;42923;53.220;6.528;2023-03-01T12:38:50;15.90;75.40
52965;DHT22;42923;53.220;6.528;2023-03-01T12:43:56;16.60;70.90
52965;DHT22;42923;53.220;6.528;2023-03-01T12:49:08;16.50;71.90
52965;DHT22;42923;53.220;6.528;2023-03-01T12:51:36;16.40;71.90
52965;DHT22;42923;53.220;6.528;2023-03-01T12:54:18;16.40;72.30
52965;DHT22;42923;53.220;6.528;2023-03-01T12:56:46;16.70;70.80
52965;DHT22;42923;53.220;6.528;2023-03-01T12:59:19;16.70;69.10
52965;DHT22;42923;53.220;6.528;2023-03-01T13:02:10;16.30;68.50
52965;DHT22;42923;53.220;6.528;2023-03-01T13:18:00;16.60;66.10
52965;DHT22;42923;53.220;6.528;2023-03-01T13:20:47;16.60;66.60
52965;DHT22;42923;53.220;6.528;2023-03-01T13:41:48;15.90;66.40
52965;DHT22;42923;53.220;6.528;2023-03-01T13:49:48;16.30;66.40
52965;DHT22;42923;53.220;6.528;2023-03-01T13:52:44;16.40;66.00
52965;DHT22;42923;53.220;6.528;2023-03-01T13:57:46;16.50;65.90
52965;DHT22;42923;53.220;6.528;2023-03-01T14:00:32;16.60;65.10
52965;DHT22;42923;53.220;6.528;2023-03-01T14:05:32;15.90;65.00
52965;DHT22;42923;53.220;6.528;2023-03-01T14:07:58;15.50;65.20
52965;DHT22;42923;53.220;6.528;2023-03-01T14:10:31;15.10;66.00
52965;DHT22;42923;53.220;6.528;2023-03-01T14:13:17;15.00;66.70
52965;DHT22;42923;53.220;6.528;2023-03-01T14:18:38;15.10;66.70
52965;DHT22;42923;53.220;6.528;2023-03-01T14:21:09;15.20;67.30
52965;DHT22;42923;53.220;6.528;2023-03-01T14:23:35;15.30;66.90
52965;DHT22;42923;53.220;6.528;2023-03-01T14:26:03;15.30;66.30
52965;DHT22;42923;53.220;6.528;2023-03-01T14:28:31;15.20;66.50
52965;DHT22;42923;53.220;6.528;2023-03-01T14:31:29;15.20;65.90
52965;DHT22;42923;53.220;6.528;2023-03-01T14:33:55;15.30;66.60
52965;DHT22;42923;53.220;6.528;2023-03-01T14:36:26;15.50;66.30
52965;DHT22;42923;53.220;6.528;2023-03-01T14:38:52;15.40;65.90
52965;DHT22;42923;53.220;6.528;2023-03-01T14:41:22;15.20;66.40
52965;DHT22;42923;53.220;6.528;2023-03-01T14:43:56;14.90;66.60
52965;DHT22;42923;53.220;6.528;2023-03-01T14:46:28;14.50;67.50
52965;DHT22;42923;53.220;6.528;2023-03-01T14:49:02;13.90;68.20
52965;DHT22;42923;53.220;6.528;2023-03-01T14:51:28;13.00;69.60
52965;DHT22;42923;53.220;6.528;2023-03-01T14:53:55;12.30;70.70
52965;DHT22;42923;53.220;6.528;2023-03-01T14:56:21;11.60;72.10
52965;DHT22;42923;53.220;6.528;2023-03-01T14:58:52;11.00;73.20
52965;DHT22;42923;53.220;6.528;2023-03-01T15:01:18;10.50;74.20
52965;DHT22;42923;53.220;6.528;2023-03-01T15:03:49;10.10;74.90
52965;DHT22;42923;53.220;6.528;2023-03-01T15:06:20;9.80;75.50
52965;DHT22;42923;53.220;6.528;2023-03-01T15:08:49;9.50;76.90
52965;DHT22;42923;53.220;6.528;2023-03-01T15:11:30;9.20;77.60
52965;DHT22;42923;53.220;6.528;2023-03-01T15:13:56;9.00;78.10
52965;DHT22;42923;53.220;6.528;2023-03-01T15:16:33;8.90;78.20
52965;DHT22;42923;53.220;6.528;2023-03-01T15:19:05;8.80;78.80
52965;DHT22;42923;53.220;6.528;2023-03-01T15:21:38;8.70;79.70
52965;DHT22;42923;53.220;6.528;2023-03-01T15:26:40;8.40;81.40
52965;DHT22;42923;53.220;6.528;2023-03-01T15:29:16;8.30;82.60
52965;DHT22;42923;53.220;6.528;2023-03-01T15:31:43;8.20;83.50
52965;DHT22;42923;53.220;6.528;2023-03-01T15:34:32;8.10;84.90
52965;DHT22;42923;53.220;6.528;2023-03-01T15:36:59;8.10;85.60
52965;DHT22;42923;53.220;6.528;2023-03-01T15:39:31;8.00;86.60
52965;DHT22;42923;53.220;6.528;2023-03-01T15:42:10;8.00;89.30
52965;DHT22;42923;53.220;6.528;2023-03-01T15:44:40;7.90;90.50
52965;DHT22;42923;53.220;6.528;2023-03-01T15:47:30;7.90;92.10
52965;DHT22;42923;53.220;6.528;2023-03-01T15:49:57;8.00;93.70
52965;DHT22;42923;53.220;6.528;2023-03-01T15:52:31;7.90;95.80
52965;DHT22;42923;53.220;6.528;2023-03-01T15:55:04;7.80;97.60
52965;DHT22;42923;53.220;6.528;2023-03-01T15:57:31;7.80;98.50
52965;DHT22;42923;53.220;6.528;2023-03-01T15:59:56;7.70;99.70
52965;DHT22;42923;53.220;6.528;2023-03-01T16:02:23;7.60;99.90
52965;DHT22;42923;53.220;6.528;2023-03-01T16:04:49;7.60;99.90
52965;DHT22;42923;53.220;6.528;2023-03-01T16:07:15;7.60;99.90
52965;DHT22;42923;53.220;6.528;2023-03-01T16:09:41;7.50;99.90
52965;DHT22;42923;53.220;6.528;2023-03-01T16:12:16;7.50;99.90
52965;DHT22;42923;53.220;6.528;2023-03-01T16:14:41;7.50;99.90
52965;DHT22;42923;53.220;6.528;2023-03-01T16:17:07;7.40;99.90
52965;DHT22;42923;53.220;6.528;2023-03-01T16:19:36;7.40;99.90
52965;DHT22;42923;53.220;6.528;2023-03-01T16:22:03;7.30;99.90
52965;DHT22;42923;53.220;6.528;2023-03-01T16:24:29;7.20;99.90
52965;DHT22;42923;53.220;6.528;2023-03-01T16:26:54;7.20;99.90
52965;DHT22;42923;53.220;6.528;2023-03-01T16:29:20;7.10;99.90
52965;DHT22;42923;53.220;6.528;2023-03-01T16:31:46;7.10;99.90
52965;DHT22;42923;53.220;6.528;2023-03-01T16:34:12;7.00;99.90
52965;DHT22;42923;53.220;6.528;2023-03-01T16:36:38;6.90;99.90
52965;DHT22;42923;53.220;6.528;2023-03-01T16:39:04;6.80;99.90
52965;DHT22;42923;53.220;6.528;2023-03-01T16:41:30;6.70;99.90
52965;DHT22;42923;53.220;6.528;2023-03-01T16:43:56;6.60;99.90
52965;DHT22;42923;53.220;6.528;2023-03-01T16:46:24;6.50;99.90
52965;DHT22;42923;53.220;6.528;2023-03-01T16:48:50;6.40;99.90
52965;DHT22;42923;53.220;6.528;2023-03-01T16:51:17;6.70;99.90
52965;DHT22;42923;53.220;6.528;2023-03-01T16:53:43;6.30;99.90
52965;DHT22;42923;53.220;6.528;2023-03-01T16:56:10;6.20;99.90
52965;DHT22;42923;53.220;6.528;2023-03-01T16:58:37;6.10;99.90
52965;DHT22;42923;53.220;6.528;2023-03-01T17:03:31;5.90;99.90
52965;DHT22;42923;53.220;6.528;2023-03-01T17:05:57;5.90;99.90
52965;DHT22;42923;53.220;6.528;2023-03-01T17:08:26;5.80;99.90
52965;DHT22;42923;53.220;6.528;2023-03-01T17:10:51;5.70;99.90
52965;DHT22;42923;53.220;6.528;2023-03-01T17:13:17;5.70;99.90
52965;DHT22;42923;53.220;6.528;2023-03-01T17:15:43;5.70;99.90
52965;DHT22;42923;53.220;6.528;2023-03-01T17:18:09;5.70;99.90
52965;DHT22;42923;53.220;6.528;2023-03-01T17:20:35;5.60;99.90
52965;DHT22;42923;53.220;6.528;2023-03-01T17:23:01;5.90;99.90
52965;DHT22;42923;53.220;6.528;2023-03-01T17:25:28;5.50;99.90
52965;DHT22;42923;53.220;6.528;2023-03-01T17:27:54;5.50;99.90
52965;DHT22;42923;53.220;6.528;2023-03-01T17:30:22;5.50;99.90
52965;DHT22;42923;53.220;6.528;2023-03-01T17:32:53;5.40;99.90
52965;DHT22;42923;53.220;6.528;2023-03-01T17:35:20;5.40;99.90
52965;DHT22;42923;53.220;6.528;2023-03-01T17:37:46;5.40;99.90
52965;DHT22;42923;53.220;6.528;2023-03-01T17:40:12;5.30;99.90
52965;DHT22;42923;53.220;6.528;2023-03-01T17:42:38;5.20;99.90
52965;DHT22;42923;53.220;6.528;2023-03-01T17:45:04;5.10;99.90
52965;DHT22;42923;53.220;6.528;2023-03-01T17:47:30;5.00;99.90
52965;DHT22;42923;53.220;6.528;2023-03-01T17:49:56;4.90;99.90
52965;DHT22;42923;53.220;6.528;2023-03-01T17:52:21;4.90;99.90
52965;DHT22;42923;53.220;6.528;2023-03-01T17:54:48;4.80;99.90
52965;DHT22;42923;53.220;6.528;2023-03-01T17:57:14;4.70;99.90
52965;DHT22;42923;53.220;6.528;2023-03-01T17:59:40;4.70;99.90